Time;durP1;ratioP1;P1;durP2;ratioP2;P2;SDS_P1;SDS_P2;PMS_P1;PMS_P2;Temp;Humidity;BMP_temperature;BMP_pressure;BME280_temperature;BME280_humidity;BME280_pressure;Samples;Min_cycle;Max_cycle;Signal;HPM_P1;HPM_P2
2024/04/22 00:02:00;;;;;;;7.90;7.20;;;;;;;3.76;76.06;96439.22;5333192;26;20307;-71
2024/04/22 00:04:26;;;;;;;8.10;7.17;;;;;;;3.54;75.05;96423.13;5334152;26;20801;-70
2024/04/22 00:06:51;;;;;;;6.30;5.70;;;;;;;3.07;77.26;96429.88;5333950;26;20234;-68
2024/04/22 00:09:16;;;;;;;7.80;6.87;;;;;;;3.15;77.77;96436.69;5334457;26;20719;-70
2024/04/22 00:11:42;;;;;;;6.70;6.10;;;;;;;3.01;77.63;96437.75;5334045;26;20247;-71
2024/04/22 00:14:11;;;;;;;7.63;6.80;;;;;;;3.22;78.42;96439.19;5331364;26;20246;-71
2024/04/22 00:16:37;;;;;;;8.13;6.43;;;;;;;3.25;77.25;96428.78;5334448;26;20277;-70
2024/04/22 00:19:03;;;;;;;7.30;6.60;;;;;;;3.32;77.34;96433.00;5334788;26;20524;-70
2024/04/22 00:21:28;;;;;;;12.27;8.93;;;;;;;3.24;77.53;96432.25;5334239;26;20453;-70
2024/04/22 00:23:54;;;;;;;7.90;7.10;;;;;;;3.20;77.39;96433.19;5333751;26;20399;-70
2024/04/22 00:26:19;;;;;;;11.83;7.63;;;;;;;3.12;77.95;96433.28;5334592;26;20246;-70
2024/04/22 00:28:44;;;;;;;7.53;6.77;;;;;;;3.13;78.37;96432.41;5337439;26;20242;-71
2024/04/22 00:31:10;;;;;;;8.50;7.00;;;;;;;3.08;79.16;96435.06;5332852;26;20799;-71
2024/04/22 00:33:35;;;;;;;8.83;7.60;;;;;;;3.23;77.87;96427.94;5334335;26;20230;-71
2024/04/22 00:36:01;;;;;;;8.73;7.80;;;;;;;3.40;77.52;96433.72;5334617;26;20658;-71
2024/04/22 00:38:27;;;;;;;9.37;6.27;;;;;;;3.47;77.38;96427.56;5335537;26;20347;-70
2024/04/22 00:40:53;;;;;;;10.60;7.33;;;;;;;3.45;77.52;96424.16;5332578;26;20246;-70
2024/04/22 00:43:19;;;;;;;8.67;7.37;;;;;;;3.50;76.10;96426.69;5336457;26;20519;-70
2024/04/22 00:45:45;;;;;;;9.87;7.83;;;;;;;3.27;77.68;96424.44;5336343;26;21480;-70
2024/04/22 00:48:12;;;;;;;9.67;7.37;;;;;;;3.28;78.57;96419.19;5338162;26;20227;-70
2024/04/22 00:50:38;;;;;;;10.17;8.50;;;;;;;3.31;78.30;96421.78;5340238;26;20857;-70
2024/04/22 00:53:06;;;;;;;9.90;7.53;;;;;;;3.71;76.53;96423.72;5339404;26;20556;-70
2024/04/22 00:55:32;;;;;;;7.40;6.63;;;;;;;3.56;76.17;96426.56;5340405;26;20235;-70
2024/04/22 00:58:02;;;;;;;7.90;7.03;;;;;;;3.46;76.12;96415.47;5340334;26;20584;-69
2024/04/22 01:00:29;;;;;;;8.70;7.47;;;;;;;3.29;77.55;96415.75;5340032;26;20519;-70
2024/04/22 01:02:55;;;;;;;7.57;6.50;;;;;;;3.30;77.10;96422.63;5336884;26;20526;-70
2024/04/22 01:05:20;;;;;;;6.70;5.00;;;;;;;3.41;76.16;96419.88;5334270;26;20473;-69
2024/04/22 01:07:46;;;;;;;8.70;6.70;;;;;;;3.41;76.94;96425.06;5333246;26;20250;-70
2024/04/22 01:10:11;;;;;;;8.40;6.50;;;;;;;3.28;77.20;96416.59;5354359;26;20277;-70
2024/04/22 01:12:37;;;;;;;9.00;6.60;;;;;;;3.39;76.70;96422.50;5358268;26;20238;-71
2024/04/22 01:15:06;;;;;;;10.07;6.60;;;;;;;3.14;77.20;96419.44;5356664;26;20273;-69
2024/04/22 01:17:39;;;;;;;8.23;6.73;;;;;;;3.35;76.42;96423.44;5334764;26;20273;-70
2024/04/22 01:20:07;;;;;;;6.97;6.00;;;;;;;3.25;76.40;96428.78;5331910;26;20492;-71
2024/04/22 01:22:32;;;;;;;7.43;6.20;;;;;;;2.93;77.13;96430.09;5333766;26;20999;-71
2024/04/22 01:24:59;;;;;;;6.90;5.93;;;;;;;2.94;77.66;96430.06;5334229;26;20457;-70
2024/04/22 01:27:25;;;;;;;6.17;5.57;;;;;;;3.13;77.83;96419.44;5333390;26;20289;-71
2024/04/22 01:29:51;;;;;;;7.87;6.50;;;;;;;2.97;77.65;96431.75;5334309;26;20515;-69
2024/04/22 01:32:16;;;;;;;7.30;6.60;;;;;;;2.63;78.69;96428.75;5333686;26;20465;-70
2024/04/22 01:34:41;;;;;;;6.53;5.60;;;;;;;2.73;78.20;96418.25;5332935;26;20239;-70
2024/04/22 01:37:07;;;;;;;5.60;5.10;;;;;;;2.60;77.95;96421.88;5332550;26;20571;-70
2024/04/22 01:39:32;;;;;;;6.50;5.47;;;;;;;2.64;77.91;96414.91;5333826;26;20312;-70
2024/04/22 01:41:58;;;;;;;5.83;5.03;;;;;;;2.36;77.77;96416.97;5332298;26;20313;-70
2024/04/22 01:44:23;;;;;;;6.17;5.57;;;;;;;2.51;77.90;96417.66;5332495;26;20313;-68
2024/04/22 01:46:48;;;;;;;5.80;4.80;;;;;;;2.50;76.79;96420.25;5333749;26;20658;-70
2024/04/22 01:49:14;;;;;;;8.10;5.03;;;;;;;2.37;77.35;96413.53;5333405;26;20226;-70
2024/04/22 01:51:39;;;;;;;6.13;5.10;;;;;;;2.47;76.71;96418.56;5332791;26;20234;-70
2024/04/22 01:54:05;;;;;;;5.43;4.93;;;;;;;2.24;78.00;96416.22;5331907;26;20234;-70
2024/04/22 01:56:30;;;;;;;5.13;4.67;;;;;;;2.20;78.71;96413.72;5332954;26;20797;-70
2024/04/22 01:58:57;;;;;;;5.30;4.70;;;;;;;2.39;77.79;96414.38;5332981;26;20647;-70
2024/04/22 02:01:23;;;;;;;5.10;4.60;;;;;;;2.19;77.97;96420.59;5333225;26;20242;-71
2024/04/22 02:03:48;;;;;;;6.13;5.00;;;;;;;1.95;78.97;96413.94;5332598;26;20506;-70
2024/04/22 02:06:14;;;;;;;9.57;5.50;;;;;;;2.02;79.01;96410.44;5333432;26;20309;-70
2024/04/22 02:08:39;;;;;;;4.67;4.33;;;;;;;2.00;78.32;96416.50;5333980;26;20276;-70
2024/04/22 02:11:05;;;;;;;5.83;4.70;;;;;;;2.25;77.13;96415.38;5334029;26;20265;-71
2024/04/22 02:13:30;;;;;;;5.03;4.17;;;;;;;1.87;77.81;96418.34;5331643;26;20293;-70
2024/04/22 02:15:56;;;;;;;5.67;5.07;;;;;;;1.75;78.31;96414.16;5332326;26;20269;-69
2024/04/22 02:18:21;;;;;;;5.20;4.70;;;;;;;1.83;78.34;96408.91;5332522;26;20285;-70
2024/04/22 02:20:46;;;;;;;4.10;3.70;;;;;;;1.93;78.60;96413.09;5330024;26;20234;-68
2024/04/22 02:23:12;;;;;;;4.60;4.20;;;;;;;1.92;77.69;96410.56;5332379;26;20302;-69
2024/04/22 02:25:37;;;;;;;4.83;4.43;;;;;;;1.92;78.23;96414.00;5332017;26;20281;-70
2024/04/22 02:28:03;;;;;;;4.73;4.30;;;;;;;1.74;79.02;96415.00;5330814;26;20317;-70
2024/04/22 02:30:28;;;;;;;4.80;4.07;;;;;;;1.85;78.67;96410.59;5332239;26;20365;-68
2024/04/22 02:32:54;;;;;;;5.20;4.43;;;;;;;1.84;78.78;96408.91;5331617;26;20318;-69
2024/04/22 02:35:19;;;;;;;4.90;4.50;;;;;;;1.92;79.28;96406.22;5331998;26;20323;-70
2024/04/22 02:37:45;;;;;;;7.57;5.00;;;;;;;1.78;79.49;96406.34;5332087;26;20246;-69
2024/04/22 02:40:10;;;;;;;5.30;4.80;;;;;;;1.68;79.98;96413.34;5331862;26;20756;-71
2024/04/22 02:42:36;;;;;;;8.40;4.80;;;;;;;1.81;79.64;96406.31;5331186;26;20238;-71
2024/04/22 02:45:01;;;;;;;6.97;4.90;;;;;;;1.93;79.16;96405.34;5331362;26;20282;-68
2024/04/22 02:47:27;;;;;;;5.20;4.70;;;;;;;1.88;78.49;96407.97;5331784;26;20277;-69
2024/04/22 02:49:52;;;;;;;5.13;4.63;;;;;;;1.94;79.09;96404.50;5333281;26;20341;-71
2024/04/22 02:52:18;;;;;;;5.30;4.80;;;;;;;2.01;79.34;96400.06;5334861;26;20223;-71
2024/04/22 02:54:43;;;;;;;5.87;4.80;;;;;;;1.94;79.48;96404.50;5334942;26;20285;-69
2024/04/22 02:57:08;;;;;;;6.00;5.40;;;;;;;1.85;79.91;96392.47;5335529;26;20289;-68
2024/04/22 02:59:34;;;;;;;6.00;5.20;;;;;;;2.00;80.45;96403.56;5335769;26;20302;-70
2024/04/22 03:01:59;;;;;;;5.40;4.90;;;;;;;1.85;80.83;96400.25;5335216;26;20277;-68
2024/04/22 03:04:24;;;;;;;6.03;5.43;;;;;;;2.02;80.83;96394.03;5335393;26;20278;-70
2024/04/22 03:06:50;;;;;;;7.00;5.10;;;;;;;2.06;80.52;96394.00;5334914;26;20235;-69
2024/04/22 03:09:15;;;;;;;6.77;6.13;;;;;;;2.15;80.85;96400.81;5334889;26;20324;-69
2024/04/22 03:11:41;;;;;;;10.37;5.73;;;;;;;2.15;80.51;96394.75;5332967;26;20573;-69
2024/04/22 03:14:06;;;;;;;6.90;6.20;;;;;;;2.31;80.77;96391.97;5335027;26;20269;-70
2024/04/22 03:16:31;;;;;;;6.50;5.90;;;;;;;2.52;78.67;96390.88;5335690;26;20345;-69
2024/04/22 03:18:57;;;;;;;6.07;5.20;;;;;;;2.58;78.69;96395.13;5337043;26;20222;-69
2024/04/22 03:21:23;;;;;;;8.77;5.97;;;;;;;2.74;77.47;96383.69;5335761;26;20246;-68
2024/04/22 03:23:48;;;;;;;6.43;5.27;;;;;;;2.83;77.88;96390.47;5339232;26;20234;-70
2024/04/22 03:26:13;;;;;;;6.53;5.33;;;;;;;2.75;77.75;96387.97;5340075;26;20242;-70
2024/04/22 03:28:39;;;;;;;5.53;4.93;;;;;;;2.74;78.55;96390.59;5333239;26;20248;-70
2024/04/22 03:31:04;;;;;;;6.30;5.27;;;;;;;2.65;78.31;96386.41;5337676;26;20269;-68
2024/04/22 03:33:30;;;;;;;5.30;4.80;;;;;;;2.15;79.49;96394.75;5335453;26;20706;-71
2024/04/22 03:36:02;;;;;;;5.97;5.00;;;;;;;2.45;77.88;96389.22;5335894;26;20250;-70
2024/04/22 03:38:28;;;;;;;5.30;4.80;;;;;;;2.48;78.51;96388.31;5321193;26;20238;-70
2024/04/22 03:40:53;;;;;;;5.00;4.50;;;;;;;2.75;76.69;96394.91;5334637;26;20598;-69
2024/04/22 03:43:19;;;;;;;4.50;4.10;;;;;;;2.51;77.38;96383.13;5332127;26;20274;-70
2024/04/22 03:49:50;;;;;;;8.40;4.40;;;;;;;2.46;77.26;96390.97;5334226;26;20288;-68
2024/04/22 03:51:13;;;;;;;5.10;4.23;;;;;;;2.20;78.88;96390.41;5333486;26;21034;-70
2024/04/22 03:53:39;;;;;;;4.07;3.77;;;;;;;2.22;77.29;96394.69;5323672;26;20537;-70
2024/04/22 03:56:04;;;;;;;6.37;4.63;;;;;;;2.15;78.70;96393.06;5334413;26;20231;-71
2024/04/22 03:58:29;;;;;;;5.27;4.77;;;;;;;2.32;78.00;96396.28;5333195;26;20243;-71
2024/04/22 04:00:55;;;;;;;12.53;4.87;;;;;;;2.32;77.09;96380.75;5334373;26;20234;-70
2024/04/22 04:03:20;;;;;;;6.60;5.10;;;;;;;2.40;76.71;96396.19;5333738;26;20558;-70
2024/04/22 04:05:46;;;;;;;5.57;3.87;;;;;;;2.16;78.38;96394.75;5333978;26;20270;-69
2024/04/22 04:08:11;;;;;;;4.40;3.60;;;;;;;2.32;77.44;96387.69;5362079;26;20749;-70
2024/04/22 04:10:36;;;;;;;5.33;4.20;;;;;;;2.40;77.72;96380.66;5334800;26;20353;-70
2024/04/22 04:13:02;;;;;;;5.40;4.07;;;;;;;2.40;76.95;96390.16;5331460;26;20589;-71
2024/04/22 04:15:29;;;;;;;5.47;4.10;;;;;;;2.29;77.65;96393.75;5333699;26;20261;-69
2024/04/22 04:17:54;;;;;;;4.87;4.37;;;;;;;2.09;77.93;96385.34;5334126;26;20332;-71
2024/04/22 04:20:19;;;;;;;7.80;4.50;;;;;;;2.01;79.66;96392.31;5333288;26;20473;-69
2024/04/22 04:22:45;;;;;;;12.67;4.80;;;;;;;2.44;76.83;96391.84;5334171;26;20296;-68
2024/04/22 04:25:10;;;;;;;5.20;4.43;;;;;;;2.10;77.78;96384.44;5334262;26;20273;-68
2024/04/22 04:27:36;;;;;;;6.40;4.90;;;;;;;2.40;77.89;96383.25;5335283;26;20238;-69
2024/04/22 04:30:01;;;;;;;5.50;4.93;;;;;;;1.90;78.57;96389.84;5327497;26;20321;-70
2024/04/22 04:32:30;;;;;;;5.00;4.20;;;;;;;2.05;78.72;96392.28;5332350;26;20306;-70
2024/04/22 04:34:55;;;;;;;5.90;4.47;;;;;;;1.95;77.92;96388.06;5333043;26;20273;-71
2024/04/22 04:37:21;;;;;;;5.33;4.50;;;;;;;2.06;77.61;96395.75;5330003;26;20473;-70
2024/04/22 04:39:46;;;;;;;7.83;4.60;;;;;;;2.19;77.35;96381.75;5332818;26;20852;-71
2024/04/22 04:42:12;;;;;;;5.20;4.70;;;;;;;2.16;77.57;96389.56;5335612;26;20285;-69
2024/04/22 04:44:37;;;;;;;5.47;4.97;;;;;;;2.40;76.48;96385.00;5335342;26;20231;-70
2024/04/22 04:47:03;;;;;;;5.43;5.03;;;;;;;2.22;77.21;96384.34;5337063;26;20246;-70
2024/04/22 04:49:29;;;;;;;5.43;4.13;;;;;;;2.35;77.34;96391.97;5339396;26;20322;-72
2024/04/22 04:51:54;;;;;;;5.17;4.30;;;;;;;2.25;77.05;96388.63;5335973;26;20227;-71
2024/04/22 04:54:19;;;;;;;6.37;5.70;;;;;;;2.12;77.98;96403.41;5334408;26;20227;-70
2024/04/22 04:56:45;;;;;;;5.53;5.00;;;;;;;1.97;77.42;96404.44;5331044;26;20234;-70
2024/04/22 04:59:10;;;;;;;6.53;5.23;;;;;;;2.05;76.81;96399.19;5331401;26;20242;-70
2024/04/22 05:01:36;;;;;;;9.10;5.70;;;;;;;2.39;76.35;96399.69;5347868;26;20245;-71
2024/04/22 05:04:02;;;;;;;8.50;6.30;;;;;;;2.14;76.64;96401.69;5334966;26;20281;-70
2024/04/22 05:06:29;;;;;;;7.27;5.00;;;;;;;2.09;77.54;96412.06;5348736;26;20241;-66
2024/04/22 05:08:54;;;;;;;5.67;5.10;;;;;;;2.30;76.34;96413.56;5322678;26;20461;-69
2024/04/22 05:11:19;;;;;;;5.90;5.30;;;;;;;2.30;76.38;96413.56;5328170;26;21003;-68
2024/04/22 05:13:45;;;;;;;6.60;5.90;;;;;;;2.20;77.03;96404.22;5327201;26;20238;-68
2024/04/22 05:16:10;;;;;;;8.40;6.10;;;;;;;2.23;76.98;96416.25;5319632;26;20231;-69
2024/04/22 05:18:35;;;;;;;6.93;5.90;;;;;;;2.35;76.25;96421.28;5333327;26;20241;-67
2024/04/22 05:21:01;;;;;;;6.17;5.57;;;;;;;2.27;76.80;96418.81;5352168;26;20245;-69
2024/04/22 05:23:26;;;;;;;7.50;5.43;;;;;;;2.35;76.76;96415.28;5323636;26;20870;-68
2024/04/22 05:25:52;;;;;;;6.23;5.63;;;;;;;2.37;76.27;96416.13;5338691;26;20329;-68
2024/04/22 05:28:17;;;;;;;22.23;7.27;;;;;;;2.35;76.72;96421.28;5330202;26;20398;-67
2024/04/22 05:30:43;;;;;;;8.40;6.13;;;;;;;2.57;75.83;96413.28;5330322;26;21039;-68
2024/04/22 05:38:38;;;;;;;5.97;5.17;;;;;;;2.42;75.80;96416.91;5317809;26;20506;-67
2024/04/22 05:41:04;;;;;;;6.63;5.53;;;;;;;2.45;75.43;96422.03;5340600;26;20463;-67
2024/04/22 05:43:29;;;;;;;10.03;5.33;;;;;;;2.41;76.65;96430.72;5346938;26;20476;-68
2024/04/22 05:45:54;;;;;;;7.80;5.20;;;;;;;2.19;77.08;96428.38;5338322;26;20271;-69
2024/04/22 05:48:20;;;;;;;7.47;5.03;;;;;;;2.38;76.13;96423.00;5337123;26;20317;-67
2024/04/22 05:50:45;;;;;;;5.47;4.97;;;;;;;2.45;76.18;96420.31;5330706;26;20374;-68
2024/04/22 05:53:11;;;;;;;8.87;5.00;;;;;;;2.47;75.94;96422.88;5332995;26;20339;-68
2024/04/22 05:55:36;;;;;;;6.00;5.40;;;;;;;2.47;74.95;96425.47;5330743;26;20759;-67
2024/04/22 05:58:01;;;;;;;6.93;5.10;;;;;;;2.23;75.74;96426.63;5327873;26;20238;-66
2024/04/22 06:00:27;;;;;;;5.30;4.80;;;;;;;2.20;76.45;96429.25;5333143;26;20276;-62
2024/04/22 06:02:52;;;;;;;16.00;5.77;;;;;;;2.15;76.46;96426.72;5345010;26;20347;-66
2024/04/22 06:05:18;;;;;;;7.63;6.27;;;;;;;2.17;76.78;96429.25;5333415;26;20395;-67
2024/04/22 06:07:43;;;;;;;4.80;4.40;;;;;;;2.39;76.83;96419.53;5361596;26;20234;-67
2024/04/22 06:10:09;;;;;;;7.40;5.70;;;;;;;2.28;76.51;96427.41;5350326;26;20237;-67
2024/04/22 06:12:34;;;;;;;6.77;6.10;;;;;;;2.44;76.22;96428.13;5336796;26;20305;-66
2024/04/22 06:15:00;;;;;;;5.10;4.60;;;;;;;2.57;75.34;96428.81;5347234;26;20469;-65
2024/04/22 06:17:26;;;;;;;6.70;5.70;;;;;;;2.74;74.50;96443.28;5347715;26;20320;-65
2024/04/22 06:19:51;;;;;;;6.97;4.37;;;;;;;2.49;75.57;96437.53;5341902;26;20297;-65
2024/04/22 06:22:16;;;;;;;5.13;4.70;;;;;;;2.09;76.67;96432.78;5350570;26;20545;-68
2024/04/22 06:24:42;;;;;;;5.33;4.50;;;;;;;2.22;77.00;96432.66;5357999;26;20341;-67
2024/04/22 06:27:07;;;;;;;5.17;4.60;;;;;;;2.26;76.42;96435.19;5372716;26;20264;-67
2024/04/22 06:29:33;;;;;;;6.20;4.43;;;;;;;2.58;75.36;96431.41;5343771;26;20242;-67
2024/04/22 06:31:58;;;;;;;6.20;4.80;;;;;;;2.48;75.34;96435.84;5343375;26;20265;-67
2024/04/22 06:34:24;;;;;;;5.90;4.50;;;;;;;2.41;74.80;96441.06;5344030;26;20242;-67
2024/04/22 06:36:49;;;;;;;7.20;5.20;;;;;;;2.40;75.40;96437.63;5342634;26;20285;-67
2024/04/22 06:39:16;;;;;;;6.60;5.20;;;;;;;2.29;76.57;96436.88;5358212;26;20229;-68
2024/04/22 06:41:41;;;;;;;5.87;4.17;;;;;;;2.51;75.24;96429.75;5354060;26;20933;-67
2024/04/22 06:44:07;;;;;;;6.90;4.90;;;;;;;2.40;74.70;96434.19;5369175;26;20549;-66
2024/04/22 06:46:32;;;;;;;5.40;4.87;;;;;;;2.44;75.68;96428.97;5370544;26;20242;-67
2024/04/22 06:48:58;;;;;;;5.37;4.10;;;;;;;2.48;75.17;96437.53;5358010;26;20235;-68
2024/04/22 06:51:24;;;;;;;6.83;4.90;;;;;;;2.18;75.04;96441.34;5349963;26;21462;-67
2024/04/22 06:53:49;;;;;;;7.40;4.87;;;;;;;2.40;74.29;96429.88;5350465;26;20258;-67
2024/04/22 06:56:14;;;;;;;5.27;4.60;;;;;;;2.32;75.39;96426.53;5347933;26;20605;-67
2024/04/22 06:58:40;;;;;;;6.70;5.73;;;;;;;2.15;76.18;96431.88;5333668;26;20257;-67
2024/04/22 07:01:05;;;;;;;5.93;4.90;;;;;;;2.38;75.58;96439.38;5339343;26;20231;-66
2024/04/22 07:03:31;;;;;;;5.10;4.57;;;;;;;2.29;75.73;96435.19;5344338;26;20305;-67
2024/04/22 07:05:57;;;;;;;6.20;4.10;;;;;;;2.25;75.88;96435.22;5336130;26;20238;-66
2024/04/22 07:08:22;;;;;;;6.10;5.30;;;;;;;2.67;73.94;96439.06;5337416;26;20230;-67
2024/04/22 07:10:48;;;;;;;4.63;4.10;;;;;;;2.73;74.85;96445.88;5345260;26;20235;-66
2024/04/22 07:13:13;;;;;;;5.67;5.03;;;;;;;2.61;74.77;96443.44;5337557;26;20290;-67
2024/04/22 07:15:38;;;;;;;4.40;4.00;;;;;;;2.44;74.03;96443.66;5342857;26;20244;-66
2024/04/22 07:18:04;;;;;;;7.60;4.97;;;;;;;2.60;73.79;96442.59;5337266;26;20235;-67
2024/04/22 07:20:30;;;;;;;5.87;4.13;;;;;;;2.43;74.46;96442.78;5322193;26;20920;-67
2024/04/22 07:22:55;;;;;;;4.50;3.77;;;;;;;2.26;74.51;96436.94;5336317;26;20306;-66
2024/04/22 07:25:20;;;;;;;5.33;4.10;;;;;;;2.43;75.13;96449.69;5336247;26;20238;-66
2024/04/22 07:27:46;;;;;;;6.30;4.57;;;;;;;2.63;74.97;96439.13;5335314;26;20285;-68
2024/04/22 07:30:12;;;;;;;4.23;3.80;;;;;;;2.58;75.17;96446.09;5334005;26;20273;-66
2024/04/22 07:32:38;;;;;;;5.30;4.40;;;;;;;2.56;74.81;96440.91;5334315;26;20294;-66
2024/04/22 07:35:04;;;;;;;5.40;4.30;;;;;;;2.53;74.94;96447.00;5332713;26;20269;-67
2024/04/22 07:37:45;;;;;;;5.73;5.13;;;;;;;2.75;73.70;96442.41;5334589;26;20288;-67
2024/04/22 07:40:16;;;;;;;6.30;4.57;;;;;;;2.56;73.47;96440.91;5333821;26;20239;-67
2024/04/22 07:42:42;;;;;;;6.23;4.73;;;;;;;2.83;73.32;96446.63;5333038;26;20461;-66
2024/04/22 07:45:09;;;;;;;5.30;4.53;;;;;;;2.81;73.15;96444.06;5334392;26;20548;-66
2024/04/22 07:47:36;;;;;;;5.20;4.70;;;;;;;2.85;74.14;96450.06;5335355;26;20465;-66
2024/04/22 07:50:02;;;;;;;4.60;4.10;;;;;;;2.75;74.21;96446.72;5334502;26;20992;-67
2024/04/22 07:52:27;;;;;;;7.70;5.30;;;;;;;2.79;74.02;96447.53;5333795;26;20579;-67
2024/04/22 07:54:53;;;;;;;5.30;4.77;;;;;;;2.90;74.13;96448.25;5334098;26;20251;-67
2024/04/22 07:57:20;;;;;;;5.87;4.67;;;;;;;3.01;73.51;96454.16;5333861;26;20281;-65
2024/04/22 07:59:45;;;;;;;10.63;5.00;;;;;;;2.66;73.98;96455.47;5333076;26;20277;-66
2024/04/22 08:02:11;;;;;;;5.17;4.40;;;;;;;2.58;74.61;96451.28;5334359;26;20569;-67
2024/04/22 08:04:37;;;;;;;5.20;4.30;;;;;;;2.40;75.07;96458.34;5333381;26;20234;-67
2024/04/22 08:07:04;;;;;;;5.20;4.70;;;;;;;2.17;75.86;96456.00;5333445;26;20430;-67
2024/04/22 08:09:30;;;;;;;9.13;4.30;;;;;;;2.22;76.29;96474.97;5333967;26;20230;-67
2024/04/22 08:11:56;;;;;;;5.10;4.30;;;;;;;2.46;76.34;96473.84;5342912;26;20505;-66
2024/04/22 08:14:42;;;;;;;5.70;4.00;;;;;;;2.38;76.84;96474.78;5332573;26;20992;-67
2024/04/22 08:17:08;;;;;;;6.80;5.50;;;;;;;2.43;77.58;96478.19;5365072;26;20241;-67
2024/04/22 08:19:33;;;;;;;5.13;4.63;;;;;;;2.39;77.53;96477.38;5366127;26;21188;-67
2024/04/22 08:21:59;;;;;;;4.97;4.47;;;;;;;2.29;77.85;96480.91;5365130;26;20827;-67
2024/04/22 08:24:26;;;;;;;5.43;4.70;;;;;;;2.44;77.89;96483.34;5335604;26;20229;-66
2024/04/22 08:26:57;;;;;;;5.57;4.70;;;;;;;2.41;77.72;96482.50;5365815;26;20280;-67
2024/04/22 08:29:23;;;;;;;6.07;5.33;;;;;;;2.48;77.59;96482.47;5371078;26;20535;-66
2024/04/22 08:31:48;;;;;;;7.30;5.33;;;;;;;2.44;77.08;96478.19;5371132;26;20626;-68
2024/04/22 08:34:14;;;;;;;6.60;4.77;;;;;;;2.47;77.12;96485.91;5341390;26;20229;-67
2024/04/22 08:36:39;;;;;;;9.07;5.90;;;;;;;2.58;76.12;96490.97;5370879;26;20233;-67
2024/04/22 08:39:05;;;;;;;5.63;4.93;;;;;;;2.66;75.58;96490.88;5372432;26;20337;-67
2024/04/22 08:41:38;;;;;;;7.90;5.07;;;;;;;2.77;73.32;96486.44;5366991;26;20289;-67
2024/04/22 08:44:03;;;;;;;5.00;4.60;;;;;;;2.85;73.15;96484.59;5364640;26;20233;-67
2024/04/22 08:46:29;;;;;;;5.10;4.60;;;;;;;2.86;73.31;96488.03;5362559;26;20519;-65
2024/04/22 08:48:54;;;;;;;6.50;4.30;;;;;;;3.02;72.93;96479.19;5365099;26;20479;-65
2024/04/22 08:51:22;;;;;;;6.50;4.90;;;;;;;3.44;71.81;96476.91;5364255;26;20233;-66
2024/04/22 08:53:47;;;;;;;10.23;5.67;;;;;;;3.75;69.69;96474.69;5353185;26;20246;-66
2024/04/22 08:56:12;;;;;;;8.30;5.07;;;;;;;3.63;69.45;96477.47;5332692;26;20517;-66
2024/04/22 08:58:38;;;;;;;5.03;4.23;;;;;;;3.58;70.01;96474.97;5334333;26;20289;-66
2024/04/22 09:01:07;;;;;;;8.43;4.70;;;;;;;3.19;70.91;96471.22;5334964;26;20257;-67
2024/04/22 09:03:32;;;;;;;5.73;4.40;;;;;;;3.53;69.21;96470.72;5336070;26;20302;-67
2024/04/22 09:05:58;;;;;;;6.87;4.80;;;;;;;3.25;70.06;96476.31;5333865;26;20528;-67
2024/04/22 09:08:23;;;;;;;6.93;5.00;;;;;;;3.27;69.58;96479.75;5332719;26;20239;-66
2024/04/22 09:10:57;;;;;;;8.60;5.60;;;;;;;3.17;69.21;96476.41;5334033;26;20273;-66
2024/04/22 09:13:22;;;;;;;6.07;4.70;;;;;;;3.01;69.95;96480.09;5332295;26;20234;-66
2024/04/22 09:15:55;;;;;;;10.50;5.27;;;;;;;3.21;69.61;96478.97;5333373;26;20516;-66
2024/04/22 09:18:25;;;;;;;5.50;4.50;;;;;;;3.14;69.83;96485.97;5332160;26;20238;-66
2024/04/22 09:20:51;;;;;;;6.90;4.40;;;;;;;3.23;69.83;96483.25;5331688;26;20554;-69
2024/04/22 09:23:17;;;;;;;5.83;4.30;;;;;;;3.08;69.19;96483.47;5329603;26;20485;-67
2024/04/22 09:25:43;;;;;;;6.47;4.33;;;;;;;2.99;70.53;96483.59;5332324;26;21380;-67
2024/04/22 09:28:11;;;;;;;5.20;4.70;;;;;;;3.45;69.07;96473.44;5331144;26;20713;-67
2024/04/22 09:30:40;;;;;;;4.93;4.53;;;;;;;3.57;67.44;96478.44;5332688;26;20238;-67
2024/04/22 09:33:09;;;;;;;5.10;4.60;;;;;;;3.73;66.59;96479.06;5332656;26;20523;-66
2024/04/22 09:35:35;;;;;;;7.30;4.77;;;;;;;3.89;67.65;96471.03;5319566;26;21076;-66
2024/04/22 09:38:01;;;;;;;6.73;5.57;;;;;;;3.88;66.08;96467.56;5332958;26;20602;-66
2024/04/22 09:40:28;;;;;;;6.13;5.53;;;;;;;4.29;64.59;96462.53;5331915;26;20507;-66
2024/04/22 09:42:54;;;;;;;9.33;4.63;;;;;;;4.17;63.82;96468.81;5332753;26;20309;-66
2024/04/22 09:45:20;;;;;;;5.73;4.60;;;;;;;4.15;64.69;96471.44;5332032;26;20457;-66
2024/04/22 09:47:46;;;;;;;4.90;4.40;;;;;;;3.90;65.83;96473.59;5332918;26;20513;-66
2024/04/22 09:50:12;;;;;;;5.00;3.93;;;;;;;4.01;66.12;96474.25;5331416;26;20540;-65
2024/04/22 09:52:39;;;;;;;5.20;4.30;;;;;;;4.20;65.80;96466.16;5332229;26;20701;-66
2024/04/22 09:55:06;;;;;;;6.17;4.20;;;;;;;4.41;65.57;96465.75;5332000;26;20646;-67
2024/04/22 09:57:34;;;;;;;6.13;4.23;;;;;;;4.36;64.82;96465.00;5333368;26;20469;-67
2024/04/22 10:00:01;;;;;;;5.37;4.13;;;;;;;4.10;64.11;96460.28;5339879;26;21258;-65
2024/04/22 10:02:27;;;;;;;7.00;4.70;;;;;;;3.73;64.48;96467.81;5339527;26;20533;-66
2024/04/22 10:04:53;;;;;;;5.13;4.57;;;;;;;3.89;65.69;96464.09;5339870;26;20457;-66
2024/04/22 10:07:19;;;;;;;5.40;4.37;;;;;;;4.12;64.92;96460.25;5341226;26;20250;-66
2024/04/22 10:09:49;;;;;;;5.17;4.13;;;;;;;4.08;63.90;96461.19;5339744;26;21080;-66
2024/04/22 10:12:24;;;;;;;7.37;4.47;;;;;;;4.15;62.97;96450.66;5337636;26;20472;-66
2024/04/22 10:14:49;;;;;;;7.27;4.40;;;;;;;4.29;62.12;96462.53;5339362;26;20509;-66
2024/04/22 10:17:17;;;;;;;4.90;4.37;;;;;;;4.19;62.52;96449.72;5339715;26;20526;-67
2024/04/22 10:19:44;;;;;;;5.00;3.90;;;;;;;3.97;61.73;96449.25;5340402;26;20234;-64
2024/04/22 10:22:13;;;;;;;10.30;4.20;;;;;;;4.36;62.38;96441.63;5337282;26;20464;-65
2024/04/22 10:24:40;;;;;;;4.43;3.20;;;;;;;4.40;61.18;96435.47;5339896;26;20514;-67
2024/04/22 10:27:07;;;;;;;5.00;3.90;;;;;;;3.85;61.99;96446.88;5340282;26;20843;-66
2024/04/22 10:29:32;;;;;;;4.90;4.40;;;;;;;3.85;62.47;96439.09;5326523;26;20905;-66
2024/04/22 10:31:58;;;;;;;5.27;4.03;;;;;;;3.82;62.71;96436.50;5340502;26;20513;-67
2024/04/22 10:34:23;;;;;;;6.60;4.10;;;;;;;3.95;63.13;96432.00;5340262;26;20301;-67
2024/04/22 10:36:48;;;;;;;4.40;3.93;;;;;;;4.19;62.56;96425.50;5339950;26;20713;-66
2024/04/22 10:39:14;;;;;;;6.17;4.20;;;;;;;4.43;61.83;96437.16;5340328;26;20273;-67
2024/04/22 10:41:39;;;;;;;6.53;4.13;;;;;;;4.49;61.37;96426.66;5339962;26;20226;-66
2024/04/22 10:44:05;;;;;;;4.70;3.87;;;;;;;4.97;59.36;96421.34;5339239;26;20234;-67
2024/04/22 10:46:30;;;;;;;3.83;3.43;;;;;;;5.72;58.02;96404.00;5339457;26;20335;-67
2024/04/22 10:48:56;;;;;;;3.53;3.10;;;;;;;5.84;56.40;96407.19;5340141;26;20258;-67
2024/04/22 10:51:21;;;;;;;3.63;3.33;;;;;;;6.07;54.37;96404.88;5339448;26;20698;-67
2024/04/22 10:53:47;;;;;;;3.60;3.30;;;;;;;6.37;53.67;96399.72;5339292;26;20633;-68
2024/04/22 10:56:14;;;;;;;4.40;3.67;;;;;;;6.65;53.35;96398.97;5339516;26;20273;-68
2024/04/22 10:58:40;;;;;;;3.20;2.90;;;;;;;6.66;50.57;96401.56;5339769;26;21064;-68
2024/04/22 11:01:06;;;;;;;4.10;2.93;;;;;;;6.57;49.67;96387.00;5346609;26;20521;-69
2024/04/22 11:03:31;;;;;;;5.33;3.33;;;;;;;6.72;49.66;96382.25;5340564;26;20290;-69
2024/04/22 11:06:03;;;;;;;3.27;2.97;;;;;;;6.69;51.11;96398.00;5338065;26;20265;-68
2024/04/22 11:08:29;;;;;;;5.60;4.40;;;;;;;7.00;56.32;96387.50;5339379;26;20235;-66
2024/04/22 11:10:56;;;;;;;4.50;3.50;;;;;;;7.24;53.78;96382.44;5333393;26;20460;-67
2024/04/22 11:13:23;;;;;;;4.50;3.50;;;;;;;7.37;51.79;96389.84;5337731;26;20465;-67
2024/04/22 11:15:48;;;;;;;5.17;3.60;;;;;;;7.20;49.36;96371.22;5336823;26;20554;-68
2024/04/22 11:18:17;;;;;;;8.37;7.67;;;;;;;6.82;52.85;96383.69;5335473;26;20635;-69
2024/04/22 11:20:43;;;;;;;12.00;11.23;;;;;;;6.45;50.74;96374.31;5339093;26;21008;-69
2024/04/22 11:23:08;;;;;;;13.10;12.23;;;;;;;7.31;55.32;96374.38;5361381;26;20467;-68
2024/04/22 11:25:34;;;;;;;1447.43;678.53;;;;;;;8.64;53.06;96366.38;5335047;26;20238;-68
2024/04/22 11:28:00;;;;;;;200.20;161.77;;;;;;;8.59;46.03;96364.84;5338698;26;20348;-67
2024/04/22 11:30:26;;;;;;;238.67;208.23;;;;;;;8.30;46.67;96365.88;5337799;26;20281;-68
2024/04/22 11:32:51;;;;;;;11.70;10.27;;;;;;;7.60;46.46;96372.59;5342882;26;20967;-67
2024/04/22 11:35:17;;;;;;;4.37;3.87;;;;;;;7.70;47.30;96368.78;5334425;26;20274;-67
2024/04/22 11:37:42;;;;;;;3.77;3.27;;;;;;;7.38;46.39;96364.59;5335383;26;21065;-68
2024/04/22 11:40:11;;;;;;;3.40;2.60;;;;;;;7.40;46.12;96368.88;5336441;26;20227;-67
2024/04/22 11:42:37;;;;;;;3.30;3.00;;;;;;;6.93;46.29;96358.13;5336336;26;20418;-68
2024/04/22 11:45:03;;;;;;;4.03;3.63;;;;;;;6.93;47.18;96354.69;5335605;26;20556;-68